New Scone, United Kingdom
Current Conditions -  °F | °C
As of 2:20 PM on Monday 22 Dec 2014 (Local Time) from EGPN Reporting Station
Few Clouds Few Clouds  
Wind Chill: 40°   Ceiling: Unl
Heat Index: 46°   Visibility: 6mi
Dew Point: 43°   Wind: 16mph
Humidity: 87%   Direction: 260°W
Pressure: 29.53"   Gusts: NA
Location:  56.42°N, 3.41°W
Report Text: EGPN 221420Z 26014KT 9999 FEW015 08/06 Q1000
Loading
Personal Weather Stations






























Interactive Weather Map New forecast layout! Learn more

10-Day Weather Forecast

Advertisements
Track Severe Weather on mobile